sensor_id;sensor_type;location;lat;lon;timestamp;temperature;humidity
31207;DHT22;17834;52.992;8.856;2023-07-31T00:02:00;15.50;99.90
31207;DHT22;17834;52.992;8.856;2023-07-31T00:04:25;15.50;99.90
31207;DHT22;17834;52.992;8.856;2023-07-31T00:06:51;15.50;99.90
31207;DHT22;17834;52.992;8.856;2023-07-31T00:09:16;15.50;99.90
31207;DHT22;17834;52.992;8.856;2023-07-31T00:11:42;15.50;99.90
31207;DHT22;17834;52.992;8.856;2023-07-31T00:14:07;15.50;99.90
31207;DHT22;17834;52.992;8.856;2023-07-31T00:16:33;15.50;99.90
31207;DHT22;17834;52.992;8.856;2023-07-31T00:18:58;15.60;99.90
31207;DHT22;17834;52.992;8.856;2023-07-31T00:21:24;15.60;99.90
31207;DHT22;17834;52.992;8.856;2023-07-31T00:23:49;15.60;99.90
31207;DHT22;17834;52.992;8.856;2023-07-31T00:26:15;15.60;99.90
31207;DHT22;17834;52.992;8.856;2023-07-31T00:28:41;15.60;99.90
31207;DHT22;17834;52.992;8.856;2023-07-31T00:31:06;15.50;99.90
31207;DHT22;17834;52.992;8.856;2023-07-31T00:33:34;15.50;99.90
31207;DHT22;17834;52.992;8.856;2023-07-31T00:35:59;15.50;99.90
31207;DHT22;17834;52.992;8.856;2023-07-31T00:38:25;15.50;99.90
31207;DHT22;17834;52.992;8.856;2023-07-31T00:40:50;15.50;99.90
31207;DHT22;17834;52.992;8.856;2023-07-31T00:43:16;15.40;99.90
31207;DHT22;17834;52.992;8.856;2023-07-31T00:45:41;15.40;99.90
31207;DHT22;17834;52.992;8.856;2023-07-31T00:48:07;15.40;99.90
31207;DHT22;17834;52.992;8.856;2023-07-31T00:50:34;15.40;99.90
31207;DHT22;17834;52.992;8.856;2023-07-31T00:53:00;15.40;99.90
31207;DHT22;17834;52.992;8.856;2023-07-31T00:55:26;15.40;99.90
31207;DHT22;17834;52.992;8.856;2023-07-31T00:57:52;15.30;99.90
31207;DHT22;17834;52.992;8.856;2023-07-31T01:00:21;15.30;99.90
31207;DHT22;17834;52.992;8.856;2023-07-31T01:02:47;15.20;99.90
31207;DHT22;17834;52.992;8.856;2023-07-31T01:05:13;15.30;99.90
31207;DHT22;17834;52.992;8.856;2023-07-31T01:07:49;15.20;99.90
31207;DHT22;17834;52.992;8.856;2023-07-31T01:10:22;15.20;99.90
31207;DHT22;17834;52.992;8.856;2023-07-31T01:12:50;15.10;99.90
31207;DHT22;17834;52.992;8.856;2023-07-31T01:15:18;15.20;99.90
31207;DHT22;17834;52.992;8.856;2023-07-31T01:17:43;15.20;99.90
31207;DHT22;17834;52.992;8.856;2023-07-31T01:25:47;15.20;99.90
31207;DHT22;17834;52.992;8.856;2023-07-31T01:28:19;15.20;99.90
31207;DHT22;17834;52.992;8.856;2023-07-31T01:30:48;15.20;99.90
31207;DHT22;17834;52.992;8.856;2023-07-31T01:33:15;15.30;99.90
31207;DHT22;17834;52.992;8.856;2023-07-31T01:35:45;15.30;99.90
31207;DHT22;17834;52.992;8.856;2023-07-31T01:38:11;15.40;99.90
31207;DHT22;17834;52.992;8.856;2023-07-31T01:40:37;15.30;99.90
31207;DHT22;17834;52.992;8.856;2023-07-31T01:43:02;15.40;99.90
31207;DHT22;17834;52.992;8.856;2023-07-31T01:45:28;15.40;99.90
31207;DHT22;17834;52.992;8.856;2023-07-31T01:47:54;15.40;99.90
31207;DHT22;17834;52.992;8.856;2023-07-31T01:50:19;15.40;99.90
31207;DHT22;17834;52.992;8.856;2023-07-31T01:52:45;15.50;99.90
31207;DHT22;17834;52.992;8.856;2023-07-31T01:55:10;15.40;99.90
31207;DHT22;17834;52.992;8.856;2023-07-31T01:57:37;15.40;99.90
31207;DHT22;17834;52.992;8.856;2023-07-31T02:00:03;15.40;99.90
31207;DHT22;17834;52.992;8.856;2023-07-31T02:02:28;15.40;99.90
31207;DHT22;17834;52.992;8.856;2023-07-31T02:04:54;15.40;99.90
31207;DHT22;17834;52.992;8.856;2023-07-31T02:07:19;15.40;99.90
31207;DHT22;17834;52.992;8.856;2023-07-31T02:09:45;15.30;99.90
31207;DHT22;17834;52.992;8.856;2023-07-31T02:12:13;15.30;99.90
31207;DHT22;17834;52.992;8.856;2023-07-31T02:14:40;15.30;99.90
31207;DHT22;17834;52.992;8.856;2023-07-31T02:17:05;15.30;99.90
31207;DHT22;17834;52.992;8.856;2023-07-31T02:19:31;15.20;99.90
31207;DHT22;17834;52.992;8.856;2023-07-31T02:21:56;15.20;99.90
31207;DHT22;17834;52.992;8.856;2023-07-31T02:24:22;15.20;99.90
31207;DHT22;17834;52.992;8.856;2023-07-31T02:26:48;15.20;99.90
31207;DHT22;17834;52.992;8.856;2023-07-31T02:29:13;15.10;99.90
31207;DHT22;17834;52.992;8.856;2023-07-31T02:31:39;15.10;99.90
31207;DHT22;17834;52.992;8.856;2023-07-31T02:34:04;15.10;99.90
31207;DHT22;17834;52.992;8.856;2023-07-31T02:36:30;15.10;99.90
31207;DHT22;17834;52.992;8.856;2023-07-31T02:38:55;15.10;99.90
31207;DHT22;17834;52.992;8.856;2023-07-31T02:41:21;15.10;99.90
31207;DHT22;17834;52.992;8.856;2023-07-31T02:43:46;15.00;99.90
31207;DHT22;17834;52.992;8.856;2023-07-31T02:46:12;15.00;99.90
31207;DHT22;17834;52.992;8.856;2023-07-31T02:48:37;15.00;99.90
31207;DHT22;17834;52.992;8.856;2023-07-31T02:51:03;15.00;99.90
31207;DHT22;17834;52.992;8.856;2023-07-31T02:53:29;15.00;99.90
31207;DHT22;17834;52.992;8.856;2023-07-31T02:55:54;14.90;99.90
31207;DHT22;17834;52.992;8.856;2023-07-31T02:58:20;14.90;99.90
31207;DHT22;17834;52.992;8.856;2023-07-31T03:00:45;14.90;99.90
31207;DHT22;17834;52.992;8.856;2023-07-31T03:03:11;14.90;99.90
31207;DHT22;17834;52.992;8.856;2023-07-31T03:05:37;14.90;99.90
31207;DHT22;17834;52.992;8.856;2023-07-31T03:08:03;14.80;99.90
31207;DHT22;17834;52.992;8.856;2023-07-31T03:10:29;14.90;99.90
31207;DHT22;17834;52.992;8.856;2023-07-31T03:12:54;14.90;99.90
31207;DHT22;17834;52.992;8.856;2023-07-31T03:15:20;14.80;99.90
31207;DHT22;17834;52.992;8.856;2023-07-31T03:17:45;14.80;99.90
31207;DHT22;17834;52.992;8.856;2023-07-31T03:20:11;14.80;99.90
31207;DHT22;17834;52.992;8.856;2023-07-31T03:22:37;14.80;99.90
31207;DHT22;17834;52.992;8.856;2023-07-31T03:25:03;14.80;99.90
31207;DHT22;17834;52.992;8.856;2023-07-31T03:27:29;14.80;99.90
31207;DHT22;17834;52.992;8.856;2023-07-31T03:29:54;14.80;99.90
31207;DHT22;17834;52.992;8.856;2023-07-31T03:32:20;14.80;99.90
31207;DHT22;17834;52.992;8.856;2023-07-31T03:34:45;14.80;99.90
31207;DHT22;17834;52.992;8.856;2023-07-31T03:37:11;14.80;99.90
31207;DHT22;17834;52.992;8.856;2023-07-31T03:39:37;14.80;99.90
31207;DHT22;17834;52.992;8.856;2023-07-31T03:42:02;14.80;99.90
31207;DHT22;17834;52.992;8.856;2023-07-31T03:44:28;14.80;99.90
31207;DHT22;17834;52.992;8.856;2023-07-31T03:46:54;14.80;99.90
31207;DHT22;17834;52.992;8.856;2023-07-31T03:49:19;14.80;99.90
31207;DHT22;17834;52.992;8.856;2023-07-31T03:51:45;14.80;99.90
31207;DHT22;17834;52.992;8.856;2023-07-31T03:54:10;14.80;99.90
31207;DHT22;17834;52.992;8.856;2023-07-31T03:56:36;14.80;99.90
31207;DHT22;17834;52.992;8.856;2023-07-31T03:59:03;14.90;99.90
31207;DHT22;17834;52.992;8.856;2023-07-31T04:01:29;14.90;99.90
31207;DHT22;17834;52.992;8.856;2023-07-31T04:03:54;14.90;99.90
31207;DHT22;17834;52.992;8.856;2023-07-31T04:06:20;14.90;99.90
31207;DHT22;17834;52.992;8.856;2023-07-31T04:08:45;14.90;99.90
31207;DHT22;17834;52.992;8.856;2023-07-31T04:11:11;14.90;99.90
31207;DHT22;17834;52.992;8.856;2023-07-31T04:13:38;15.00;99.90
31207;DHT22;17834;52.992;8.856;2023-07-31T04:16:03;15.00;99.90
31207;DHT22;17834;52.992;8.856;2023-07-31T04:18:29;15.00;99.90
31207;DHT22;17834;52.992;8.856;2023-07-31T04:20:56;15.00;99.90
31207;DHT22;17834;52.992;8.856;2023-07-31T04:23:24;15.00;99.90
31207;DHT22;17834;52.992;8.856;2023-07-31T04:25:49;15.00;99.90
31207;DHT22;17834;52.992;8.856;2023-07-31T04:28:15;15.10;99.90
31207;DHT22;17834;52.992;8.856;2023-07-31T04:30:40;15.00;99.90
31207;DHT22;17834;52.992;8.856;2023-07-31T04:33:06;15.10;99.90
31207;DHT22;17834;52.992;8.856;2023-07-31T04:35:31;15.10;99.90
31207;DHT22;17834;52.992;8.856;2023-07-31T04:37:57;15.20;99.90
31207;DHT22;17834;52.992;8.856;2023-07-31T04:40:22;15.20;99.90
31207;DHT22;17834;52.992;8.856;2023-07-31T04:42:48;15.20;99.90
31207;DHT22;17834;52.992;8.856;2023-07-31T04:45:14;15.20;99.90
31207;DHT22;17834;52.992;8.856;2023-07-31T04:47:39;15.20;99.90
31207;DHT22;17834;52.992;8.856;2023-07-31T04:50:05;15.20;99.90
31207;DHT22;17834;52.992;8.856;2023-07-31T04:52:31;15.20;99.90
31207;DHT22;17834;52.992;8.856;2023-07-31T04:54:56;15.20;99.90
31207;DHT22;17834;52.992;8.856;2023-07-31T04:57:22;15.20;99.90
31207;DHT22;17834;52.992;8.856;2023-07-31T04:59:47;15.20;99.90
31207;DHT22;17834;52.992;8.856;2023-07-31T05:02:13;15.30;99.90
31207;DHT22;17834;52.992;8.856;2023-07-31T05:04:39;15.30;99.90
31207;DHT22;17834;52.992;8.856;2023-07-31T05:07:04;15.40;99.90
31207;DHT22;17834;52.992;8.856;2023-07-31T05:09:30;15.40;99.90
31207;DHT22;17834;52.992;8.856;2023-07-31T05:11:56;15.50;99.90
31207;DHT22;17834;52.992;8.856;2023-07-31T05:14:21;15.60;99.90
31207;DHT22;17834;52.992;8.856;2023-07-31T05:16:47;15.60;99.90
31207;DHT22;17834;52.992;8.856;2023-07-31T05:19:12;15.60;99.90
31207;DHT22;17834;52.992;8.856;2023-07-31T05:21:38;15.70;99.90
31207;DHT22;17834;52.992;8.856;2023-07-31T05:24:04;15.70;99.90
31207;DHT22;17834;52.992;8.856;2023-07-31T05:26:29;15.70;99.90
31207;DHT22;17834;52.992;8.856;2023-07-31T05:28:55;15.70;99.90
31207;DHT22;17834;52.992;8.856;2023-07-31T05:31:21;15.60;99.90
31207;DHT22;17834;52.992;8.856;2023-07-31T05:33:47;15.70;99.90
31207;DHT22;17834;52.992;8.856;2023-07-31T05:36:15;15.70;99.90
31207;DHT22;17834;52.992;8.856;2023-07-31T05:38:41;15.60;99.90
31207;DHT22;17834;52.992;8.856;2023-07-31T05:41:07;15.70;99.90
31207;DHT22;17834;52.992;8.856;2023-07-31T05:43:33;15.70;99.90
31207;DHT22;17834;52.992;8.856;2023-07-31T05:45:58;15.70;99.90
31207;DHT22;17834;52.992;8.856;2023-07-31T05:48:24;15.80;99.90
31207;DHT22;17834;52.992;8.856;2023-07-31T05:50:49;15.80;99.90
31207;DHT22;17834;52.992;8.856;2023-07-31T05:53:15;15.90;99.90
31207;DHT22;17834;52.992;8.856;2023-07-31T05:55:40;15.90;99.90
31207;DHT22;17834;52.992;8.856;2023-07-31T06:05:24;16.00;99.90
31207;DHT22;17834;52.992;8.856;2023-07-31T06:07:50;16.00;99.90
31207;DHT22;17834;52.992;8.856;2023-07-31T06:10:15;16.00;99.90
31207;DHT22;17834;52.992;8.856;2023-07-31T06:12:41;16.00;99.90
31207;DHT22;17834;52.992;8.856;2023-07-31T06:15:06;16.00;99.90
31207;DHT22;17834;52.992;8.856;2023-07-31T06:17:32;16.10;99.90
31207;DHT22;17834;52.992;8.856;2023-07-31T06:19:58;16.10;99.90
31207;DHT22;17834;52.992;8.856;2023-07-31T06:22:24;16.20;99.90
31207;DHT22;17834;52.992;8.856;2023-07-31T06:24:49;16.20;99.90
31207;DHT22;17834;52.992;8.856;2023-07-31T06:27:15;16.20;99.90
31207;DHT22;17834;52.992;8.856;2023-07-31T06:29:40;16.20;99.90
31207;DHT22;17834;52.992;8.856;2023-07-31T06:32:06;16.30;99.90
31207;DHT22;17834;52.992;8.856;2023-07-31T06:34:32;16.30;99.90
31207;DHT22;17834;52.992;8.856;2023-07-31T06:36:58;16.40;99.90
31207;DHT22;17834;52.992;8.856;2023-07-31T06:39:23;16.50;99.90
31207;DHT22;17834;52.992;8.856;2023-07-31T06:41:49;16.50;99.90
31207;DHT22;17834;52.992;8.856;2023-07-31T06:44:14;16.60;99.90
31207;DHT22;17834;52.992;8.856;2023-07-31T06:46:40;16.60;99.90
31207;DHT22;17834;52.992;8.856;2023-07-31T06:49:05;16.60;99.90
31207;DHT22;17834;52.992;8.856;2023-07-31T06:51:31;16.70;99.90
31207;DHT22;17834;52.992;8.856;2023-07-31T06:53:57;16.80;99.90
31207;DHT22;17834;52.992;8.856;2023-07-31T06:56:23;16.90;99.90
31207;DHT22;17834;52.992;8.856;2023-07-31T06:58:49;16.90;99.90
31207;DHT22;17834;52.992;8.856;2023-07-31T07:01:14;16.90;99.90
31207;DHT22;17834;52.992;8.856;2023-07-31T07:03:40;16.90;99.90
31207;DHT22;17834;52.992;8.856;2023-07-31T07:06:06;16.80;99.90
31207;DHT22;17834;52.992;8.856;2023-07-31T07:08:31;16.80;99.90
31207;DHT22;17834;52.992;8.856;2023-07-31T07:10:57;16.90;99.90
31207;DHT22;17834;52.992;8.856;2023-07-31T07:13:22;16.90;99.90
31207;DHT22;17834;52.992;8.856;2023-07-31T07:15:49;16.90;99.90
31207;DHT22;17834;52.992;8.856;2023-07-31T07:18:15;16.90;99.90
31207;DHT22;17834;52.992;8.856;2023-07-31T07:20:45;17.00;99.90
31207;DHT22;17834;52.992;8.856;2023-07-31T07:23:11;16.90;99.90
31207;DHT22;17834;52.992;8.856;2023-07-31T07:25:38;16.90;99.90
31207;DHT22;17834;52.992;8.856;2023-07-31T07:28:03;16.90;99.90
31207;DHT22;17834;52.992;8.856;2023-07-31T07:30:29;16.90;99.90
31207;DHT22;17834;52.992;8.856;2023-07-31T07:32:55;17.00;99.90
31207;DHT22;17834;52.992;8.856;2023-07-31T07:35:20;17.10;99.90
31207;DHT22;17834;52.992;8.856;2023-07-31T07:37:48;17.30;99.90
31207;DHT22;17834;52.992;8.856;2023-07-31T07:40:15;17.50;99.90
31207;DHT22;17834;52.992;8.856;2023-07-31T07:42:41;17.60;99.90
31207;DHT22;17834;52.992;8.856;2023-07-31T07:45:07;17.80;99.90
31207;DHT22;17834;52.992;8.856;2023-07-31T07:47:32;17.90;99.90
31207;DHT22;17834;52.992;8.856;2023-07-31T07:49:58;17.90;99.90
31207;DHT22;17834;52.992;8.856;2023-07-31T07:52:23;17.90;99.90
31207;DHT22;17834;52.992;8.856;2023-07-31T07:54:49;17.80;99.90
31207;DHT22;17834;52.992;8.856;2023-07-31T07:57:15;17.80;99.90
31207;DHT22;17834;52.992;8.856;2023-07-31T07:59:41;17.70;99.90
31207;DHT22;17834;52.992;8.856;2023-07-31T08:02:06;17.90;99.90
31207;DHT22;17834;52.992;8.856;2023-07-31T08:04:32;17.90;99.90
31207;DHT22;17834;52.992;8.856;2023-07-31T08:06:57;17.90;99.90
31207;DHT22;17834;52.992;8.856;2023-07-31T08:09:23;18.00;99.90
31207;DHT22;17834;52.992;8.856;2023-07-31T08:11:49;18.10;99.90
31207;DHT22;17834;52.992;8.856;2023-07-31T08:14:14;18.10;99.90
31207;DHT22;17834;52.992;8.856;2023-07-31T08:16:40;18.20;99.90
31207;DHT22;17834;52.992;8.856;2023-07-31T08:19:05;18.30;99.90
31207;DHT22;17834;52.992;8.856;2023-07-31T08:21:32;18.30;99.90
31207;DHT22;17834;52.992;8.856;2023-07-31T08:23:58;18.30;99.90
31207;DHT22;17834;52.992;8.856;2023-07-31T08:26:23;18.30;99.90
31207;DHT22;17834;52.992;8.856;2023-07-31T08:28:49;18.30;99.90
31207;DHT22;17834;52.992;8.856;2023-07-31T08:31:14;18.50;99.90
31207;DHT22;17834;52.992;8.856;2023-07-31T08:33:40;18.50;99.90
31207;DHT22;17834;52.992;8.856;2023-07-31T08:36:06;18.60;99.90
31207;DHT22;17834;52.992;8.856;2023-07-31T08:38:32;18.60;99.90
31207;DHT22;17834;52.992;8.856;2023-07-31T08:40:58;18.70;99.90
31207;DHT22;17834;52.992;8.856;2023-07-31T08:43:26;18.80;99.90
31207;DHT22;17834;52.992;8.856;2023-07-31T08:45:52;19.00;99.90
31207;DHT22;17834;52.992;8.856;2023-07-31T08:48:20;19.30;99.90
31207;DHT22;17834;52.992;8.856;2023-07-31T08:50:46;19.50;99.90
31207;DHT22;17834;52.992;8.856;2023-07-31T08:53:11;19.70;99.90
31207;DHT22;17834;52.992;8.856;2023-07-31T08:55:38;20.00;99.90
31207;DHT22;17834;52.992;8.856;2023-07-31T08:58:04;20.10;99.90
31207;DHT22;17834;52.992;8.856;2023-07-31T09:00:32;20.10;99.90
31207;DHT22;17834;52.992;8.856;2023-07-31T09:03:03;20.00;99.90
31207;DHT22;17834;52.992;8.856;2023-07-31T09:05:30;20.10;99.90
31207;DHT22;17834;52.992;8.856;2023-07-31T09:07:57;20.10;99.90
31207;DHT22;17834;52.992;8.856;2023-07-31T09:10:23;20.10;99.90
31207;DHT22;17834;52.992;8.856;2023-07-31T09:12:51;20.30;99.90
31207;DHT22;17834;52.992;8.856;2023-07-31T09:15:16;20.40;99.90
31207;DHT22;17834;52.992;8.856;2023-07-31T09:17:42;20.50;99.90
31207;DHT22;17834;52.992;8.856;2023-07-31T09:20:15;20.40;99.90
31207;DHT22;17834;52.992;8.856;2023-07-31T09:22:42;20.40;99.90
31207;DHT22;17834;52.992;8.856;2023-07-31T09:25:16;20.20;99.90
31207;DHT22;17834;52.992;8.856;2023-07-31T09:30:28;19.90;99.90
31207;DHT22;17834;52.992;8.856;2023-07-31T09:33:05;19.80;99.90
31207;DHT22;17834;52.992;8.856;2023-07-31T09:35:34;19.60;99.90
31207;DHT22;17834;52.992;8.856;2023-07-31T09:38:06;19.60;99.90
31207;DHT22;17834;52.992;8.856;2023-07-31T09:40:33;19.40;99.90
31207;DHT22;17834;52.992;8.856;2023-07-31T09:43:04;19.40;99.90
31207;DHT22;17834;52.992;8.856;2023-07-31T09:45:34;19.60;99.90
31207;DHT22;17834;52.992;8.856;2023-07-31T09:48:01;19.70;99.90
31207;DHT22;17834;52.992;8.856;2023-07-31T09:50:28;19.90;99.90
31207;DHT22;17834;52.992;8.856;2023-07-31T09:52:54;19.90;99.90
31207;DHT22;17834;52.992;8.856;2023-07-31T09:55:20;20.10;99.90
31207;DHT22;17834;52.992;8.856;2023-07-31T09:57:48;20.20;99.90
31207;DHT22;17834;52.992;8.856;2023-07-31T10:00:15;20.30;99.90
31207;DHT22;17834;52.992;8.856;2023-07-31T10:02:41;20.40;99.90
31207;DHT22;17834;52.992;8.856;2023-07-31T10:05:08;20.50;99.90
31207;DHT22;17834;52.992;8.856;2023-07-31T10:07:37;20.30;99.90
31207;DHT22;17834;52.992;8.856;2023-07-31T10:10:07;20.40;99.90
31207;DHT22;17834;52.992;8.856;2023-07-31T10:12:33;20.60;99.90
31207;DHT22;17834;52.992;8.856;2023-07-31T10:15:00;20.60;99.90
31207;DHT22;17834;52.992;8.856;2023-07-31T10:17:26;20.70;99.90
31207;DHT22;17834;52.992;8.856;2023-07-31T10:19:53;20.80;99.90
31207;DHT22;17834;52.992;8.856;2023-07-31T10:22:20;21.10;99.90
31207;DHT22;17834;52.992;8.856;2023-07-31T10:24:46;21.10;99.90
31207;DHT22;17834;52.992;8.856;2023-07-31T10:27:13;21.40;99.90
31207;DHT22;17834;52.992;8.856;2023-07-31T10:29:40;21.40;99.90
31207;DHT22;17834;52.992;8.856;2023-07-31T10:32:09;21.20;99.90
31207;DHT22;17834;52.992;8.856;2023-07-31T10:34:37;21.20;99.90
31207;DHT22;17834;52.992;8.856;2023-07-31T10:37:29;21.30;99.90
31207;DHT22;17834;52.992;8.856;2023-07-31T10:39:57;21.40;99.90
31207;DHT22;17834;52.992;8.856;2023-07-31T10:45:00;21.40;99.90
31207;DHT22;17834;52.992;8.856;2023-07-31T10:47:26;21.40;99.90
31207;DHT22;17834;52.992;8.856;2023-07-31T10:49:52;21.30;99.90
31207;DHT22;17834;52.992;8.856;2023-07-31T10:52:21;21.30;99.90
31207;DHT22;17834;52.992;8.856;2023-07-31T10:55:15;21.50;99.90
31207;DHT22;17834;52.992;8.856;2023-07-31T10:57:46;21.60;99.90
31207;DHT22;17834;52.992;8.856;2023-07-31T11:02:57;21.50;99.90
31207;DHT22;17834;52.992;8.856;2023-07-31T11:05:44;21.70;99.90
31207;DHT22;17834;52.992;8.856;2023-07-31T11:08:28;22.00;99.90
31207;DHT22;17834;52.992;8.856;2023-07-31T11:11:20;22.40;99.90
31207;DHT22;17834;52.992;8.856;2023-07-31T11:13:53;22.50;99.90
31207;DHT22;17834;52.992;8.856;2023-07-31T11:16:20;22.60;99.90
31207;DHT22;17834;52.992;8.856;2023-07-31T11:18:47;22.50;99.90
31207;DHT22;17834;52.992;8.856;2023-07-31T11:21:19;22.50;99.90
31207;DHT22;17834;52.992;8.856;2023-07-31T11:23:49;22.40;99.90
31207;DHT22;17834;52.992;8.856;2023-07-31T11:26:15;22.20;99.90
31207;DHT22;17834;52.992;8.856;2023-07-31T11:28:40;22.10;99.90
31207;DHT22;17834;52.992;8.856;2023-07-31T11:31:09;22.00;99.90
31207;DHT22;17834;52.992;8.856;2023-07-31T11:33:34;21.90;99.90
31207;DHT22;17834;52.992;8.856;2023-07-31T11:36:00;21.80;99.90
31207;DHT22;17834;52.992;8.856;2023-07-31T11:38:30;21.80;99.90
31207;DHT22;17834;52.992;8.856;2023-07-31T11:41:01;21.80;99.90
31207;DHT22;17834;52.992;8.856;2023-07-31T11:43:31;21.80;99.90
31207;DHT22;17834;52.992;8.856;2023-07-31T11:45:59;21.70;99.90
31207;DHT22;17834;52.992;8.856;2023-07-31T11:48:29;21.90;99.90
31207;DHT22;17834;52.992;8.856;2023-07-31T11:51:00;21.70;99.90
31207;DHT22;17834;52.992;8.856;2023-07-31T11:53:47;21.80;99.90
31207;DHT22;17834;52.992;8.856;2023-07-31T11:56:17;22.00;99.90
31207;DHT22;17834;52.992;8.856;2023-07-31T11:58:46;22.10;99.90
31207;DHT22;17834;52.992;8.856;2023-07-31T12:01:14;22.30;99.90
31207;DHT22;17834;52.992;8.856;2023-07-31T12:03:41;22.40;99.90
31207;DHT22;17834;52.992;8.856;2023-07-31T12:06:08;22.30;99.90
31207;DHT22;17834;52.992;8.856;2023-07-31T12:08:33;22.20;99.90
31207;DHT22;17834;52.992;8.856;2023-07-31T12:11:04;22.20;99.90
31207;DHT22;17834;52.992;8.856;2023-07-31T12:13:31;21.90;99.90
31207;DHT22;17834;52.992;8.856;2023-07-31T12:15:59;22.00;99.90
31207;DHT22;17834;52.992;8.856;2023-07-31T12:18:26;22.00;99.90
31207;DHT22;17834;52.992;8.856;2023-07-31T12:21:00;21.90;99.90
31207;DHT22;17834;52.992;8.856;2023-07-31T12:23:28;21.90;99.90
31207;DHT22;17834;52.992;8.856;2023-07-31T12:26:12;21.80;99.90
31207;DHT22;17834;52.992;8.856;2023-07-31T12:28:46;21.70;99.90
31207;DHT22;17834;52.992;8.856;2023-07-31T12:31:20;21.70;99.90
31207;DHT22;17834;52.992;8.856;2023-07-31T12:33:47;21.60;99.90
31207;DHT22;17834;52.992;8.856;2023-07-31T12:36:16;21.70;99.90
31207;DHT22;17834;52.992;8.856;2023-07-31T12:38:42;21.70;99.90
31207;DHT22;17834;52.992;8.856;2023-07-31T12:41:08;21.80;99.90
31207;DHT22;17834;52.992;8.856;2023-07-31T12:43:34;21.90;99.90
31207;DHT22;17834;52.992;8.856;2023-07-31T12:46:00;22.00;99.90
31207;DHT22;17834;52.992;8.856;2023-07-31T12:48:26;22.10;99.90
31207;DHT22;17834;52.992;8.856;2023-07-31T12:50:51;22.20;99.90
31207;DHT22;17834;52.992;8.856;2023-07-31T12:53:17;22.00;99.90
31207;DHT22;17834;52.992;8.856;2023-07-31T12:55:42;22.10;99.90
31207;DHT22;17834;52.992;8.856;2023-07-31T12:58:08;22.10;99.90
31207;DHT22;17834;52.992;8.856;2023-07-31T13:00:34;22.10;99.90
31207;DHT22;17834;52.992;8.856;2023-07-31T13:03:00;22.10;99.90
31207;DHT22;17834;52.992;8.856;2023-07-31T13:05:26;22.10;99.90
31207;DHT22;17834;52.992;8.856;2023-07-31T13:07:52;22.30;99.90
31207;DHT22;17834;52.992;8.856;2023-07-31T13:10:18;22.30;99.90
31207;DHT22;17834;52.992;8.856;2023-07-31T13:12:44;22.10;99.90
31207;DHT22;17834;52.992;8.856;2023-07-31T13:15:09;21.90;99.90
31207;DHT22;17834;52.992;8.856;2023-07-31T13:17:35;21.70;99.90
31207;DHT22;17834;52.992;8.856;2023-07-31T13:20:02;21.70;99.90
31207;DHT22;17834;52.992;8.856;2023-07-31T13:22:28;21.70;99.90
31207;DHT22;17834;52.992;8.856;2023-07-31T13:24:54;21.50;99.90
31207;DHT22;17834;52.992;8.856;2023-07-31T13:27:20;21.70;99.90
31207;DHT22;17834;52.992;8.856;2023-07-31T13:29:56;21.70;99.90
31207;DHT22;17834;52.992;8.856;2023-07-31T13:32:22;21.50;99.90
31207;DHT22;17834;52.992;8.856;2023-07-31T13:34:48;21.60;99.90
31207;DHT22;17834;52.992;8.856;2023-07-31T13:37:14;21.40;99.90
31207;DHT22;17834;52.992;8.856;2023-07-31T13:39:40;21.30;99.90
31207;DHT22;17834;52.992;8.856;2023-07-31T13:42:07;21.20;99.90
31207;DHT22;17834;52.992;8.856;2023-07-31T13:44:34;21.20;99.90
31207;DHT22;17834;52.992;8.856;2023-07-31T13:47:00;21.00;99.90
31207;DHT22;17834;52.992;8.856;2023-07-31T13:49:26;21.10;99.90
31207;DHT22;17834;52.992;8.856;2023-07-31T13:51:51;21.00;99.90
31207;DHT22;17834;52.992;8.856;2023-07-31T13:54:17;21.10;99.90
31207;DHT22;17834;52.992;8.856;2023-07-31T13:56:43;20.90;99.90
31207;DHT22;17834;52.992;8.856;2023-07-31T13:59:08;20.80;99.90
31207;DHT22;17834;52.992;8.856;2023-07-31T14:01:34;20.80;99.90
31207;DHT22;17834;52.992;8.856;2023-07-31T14:03:59;20.70;99.90
31207;DHT22;17834;52.992;8.856;2023-07-31T14:06:25;20.80;99.90
31207;DHT22;17834;52.992;8.856;2023-07-31T14:08:50;20.80;99.90
31207;DHT22;17834;52.992;8.856;2023-07-31T14:11:16;20.90;99.90
31207;DHT22;17834;52.992;8.856;2023-07-31T14:13:41;20.80;99.90
31207;DHT22;17834;52.992;8.856;2023-07-31T14:16:07;20.80;99.90
31207;DHT22;17834;52.992;8.856;2023-07-31T14:18:33;20.90;99.90
31207;DHT22;17834;52.992;8.856;2023-07-31T14:20:58;21.00;99.90
31207;DHT22;17834;52.992;8.856;2023-07-31T14:23:24;21.00;99.90
31207;DHT22;17834;52.992;8.856;2023-07-31T14:25:49;21.00;99.90
31207;DHT22;17834;52.992;8.856;2023-07-31T14:28:15;20.90;99.90
31207;DHT22;17834;52.992;8.856;2023-07-31T14:30:40;21.10;99.90
31207;DHT22;17834;52.992;8.856;2023-07-31T14:33:06;21.30;99.90
31207;DHT22;17834;52.992;8.856;2023-07-31T14:35:32;21.70;99.90
31207;DHT22;17834;52.992;8.856;2023-07-31T14:37:57;21.80;99.90
31207;DHT22;17834;52.992;8.856;2023-07-31T14:40:23;22.10;99.90
31207;DHT22;17834;52.992;8.856;2023-07-31T14:42:48;22.30;99.90
31207;DHT22;17834;52.992;8.856;2023-07-31T14:45:14;22.50;99.90
31207;DHT22;17834;52.992;8.856;2023-07-31T14:47:39;22.40;99.90
31207;DHT22;17834;52.992;8.856;2023-07-31T14:50:05;22.30;99.90
31207;DHT22;17834;52.992;8.856;2023-07-31T14:52:31;22.00;99.90
31207;DHT22;17834;52.992;8.856;2023-07-31T14:54:57;21.90;99.90
31207;DHT22;17834;52.992;8.856;2023-07-31T14:57:22;21.70;99.90
31207;DHT22;17834;52.992;8.856;2023-07-31T14:59:48;21.60;99.90
31207;DHT22;17834;52.992;8.856;2023-07-31T15:02:15;21.60;99.90
31207;DHT22;17834;52.992;8.856;2023-07-31T15:04:41;21.70;99.90
31207;DHT22;17834;52.992;8.856;2023-07-31T15:07:07;21.60;99.90
31207;DHT22;17834;52.992;8.856;2023-07-31T15:09:32;21.60;99.90
31207;DHT22;17834;52.992;8.856;2023-07-31T15:11:58;21.30;99.90
31207;DHT22;17834;52.992;8.856;2023-07-31T15:14:24;21.10;99.90
31207;DHT22;17834;52.992;8.856;2023-07-31T15:16:50;20.90;99.90
31207;DHT22;17834;52.992;8.856;2023-07-31T15:19:16;20.80;99.90
31207;DHT22;17834;52.992;8.856;2023-07-31T15:21:41;20.60;99.90
31207;DHT22;17834;52.992;8.856;2023-07-31T15:24:07;20.60;99.90
31207;DHT22;17834;52.992;8.856;2023-07-31T15:26:33;20.50;99.90
31207;DHT22;17834;52.992;8.856;2023-07-31T15:29:04;20.40;99.90
31207;DHT22;17834;52.992;8.856;2023-07-31T15:31:38;20.40;99.90
31207;DHT22;17834;52.992;8.856;2023-07-31T15:34:04;20.30;99.90
31207;DHT22;17834;52.992;8.856;2023-07-31T15:36:29;20.10;99.90
31207;DHT22;17834;52.992;8.856;2023-07-31T15:38:55;20.10;99.90
31207;DHT22;17834;52.992;8.856;2023-07-31T15:41:21;20.00;99.90
31207;DHT22;17834;52.992;8.856;2023-07-31T15:43:46;20.00;99.90
31207;DHT22;17834;52.992;8.856;2023-07-31T15:46:12;20.10;99.90
31207;DHT22;17834;52.992;8.856;2023-07-31T15:48:38;20.20;99.90